Darstellungsparameter: Aktuell verwendete Einstellungen:
Skalierung der Graphiken ... ?
xyx+y,   Skalierungsfaktor:      Skalierung: Modus: x, Faktor: 1
Darstellungszeitraum ... ?
Vom - - bis: - -   Zeitraum: 19.01.2011 - 19.01.2011
Min/Max/Avg-Anzeige ... ?
Zeige MMA aktuell
Zeige MMA Monat
Zeige MMA alles
Zeige --A aktuell
Zeige --A Monat
Zeige --A alles
Keine MMA-Anzeige
MMA:
Average (ber die Originaldaten)
MMA-Basis: 19.01.2011 - 19.01.2011
Quicknavigation für Darstellung... ?
Tage:      1T, 2T, 3T, 5T -1T -2T -3T -5T +1T +2T +3T +5T
Wochen: 1W, 2W, 3W -1W -2W -3W +1W +2W +3W
Monate: 1M, 3M, 6M -1M -3M -6M +1M +3M +6M
Jahre:    1J, 3J, 5J, 10J -1J -3J -5J -10J +1J +3J +5J +10J
Nutze für die Darstellung ... ?
Originaldaten oder Mittelwerte auf ...
Stundenbasis Tagesbasis Wochenbasis
Monatsbasis Jahresbasis      Datenbasis: Original-Daten
Darstellen als:
Statistik (Auto) Statistik J:M      Darstellung:
Zur Graphik,    zurück zur Übersicht aller Sensoren.
 
Tabellarische Datenbersicht: ?
 
Sensor: Nr:Datum:Temp:Abs-Feuchte:Windchill:Wind:
Aussen-T/F 1 19-01-2011 00:08:04 4.7 C 5.46 g/m*3 4.7 C 0 km/h
2 19-01-2011 00:20:04 4.6 C 5.36 g/m*3 4.6 C 0 km/h
3 19-01-2011 00:32:04 4.3 C 5.06 g/m*3 4.3 C 0 km/h
4 19-01-2011 00:44:04 4.1 C 5.06 g/m*3 4.1 C 0 km/h
5 19-01-2011 00:56:04 4.1 C 5.06 g/m*3 4.1 C 0 km/h
6 19-01-2011 01:08:04 4 C 4.9 g/m*3 4 C 0 km/h
7 19-01-2011 01:20:04 4 C 4.83 g/m*3 4 C 0 km/h
8 19-01-2011 01:32:04 3.8 C 4.71 g/m*3 3.8 C 0 km/h
9 19-01-2011 01:44:04 3.8 C 4.71 g/m*3 3.8 C 0 km/h
10 19-01-2011 01:56:04 3.8 C 4.71 g/m*3 3.8 C 0 km/h
11 19-01-2011 02:08:04 3.8 C 4.64 g/m*3 3.8 C 0 km/h
12 19-01-2011 02:20:04 3.7 C 4.67 g/m*3 3.7 C 0 km/h
13 19-01-2011 02:32:04 3.1 C 4.61 g/m*3 3.1 C 0 km/h
14 19-01-2011 02:44:04 3.2 C 4.7 g/m*3 3.2 C 0 km/h
15 19-01-2011 02:56:04 3.3 C 4.73 g/m*3 3.3 C 0 km/h
16 19-01-2011 03:08:04 3.3 C 4.73 g/m*3 3.3 C 0 km/h
17 19-01-2011 03:20:05 2.9 C 4.78 g/m*3 2.9 C 0 km/h
18 19-01-2011 03:32:05 2.7 C 4.78 g/m*3 2.7 C 0 km/h
19 19-01-2011 03:44:05 2.7 C 4.84 g/m*3 2.7 C 0 km/h
20 19-01-2011 03:56:05 3 C 4.88 g/m*3 3 C 0 km/h
21 19-01-2011 04:08:05 3 C 4.88 g/m*3 3 C 0 km/h
22 19-01-2011 04:20:05 3 C 4.88 g/m*3 3 C 0 km/h
23 19-01-2011 04:32:05 2.8 C 4.93 g/m*3 2.8 C 0 km/h
24 19-01-2011 04:44:05 2.7 C 4.89 g/m*3 2.7 C 0 km/h
25 19-01-2011 04:56:05 2.5 C 4.89 g/m*3 2.5 C 0 km/h
Sensor: Nr:Datum:Temp:Abs-Feuchte:Windchill:Wind:
Aussen-T/F 26 19-01-2011 05:08:05 2.5 C 4.94 g/m*3 2.5 C 0 km/h
27 19-01-2011 05:20:05 2.5 C 4.94 g/m*3 2.5 C 0 km/h
28 19-01-2011 05:32:05 2.5 C 4.94 g/m*3 2.5 C 0 km/h
29 19-01-2011 05:44:05 2.6 C 5.03 g/m*3 2.6 C 0 km/h
30 19-01-2011 05:56:05 2.7 C 5.07 g/m*3 2.7 C 0 km/h
31 19-01-2011 06:08:05 2.6 C 4.98 g/m*3 2.6 C 0 km/h
32 19-01-2011 06:20:05 2.6 C 5.03 g/m*3 2.6 C 0 km/h
33 19-01-2011 06:32:05 2.6 C 4.98 g/m*3 2.6 C 0 km/h
34 19-01-2011 06:44:05 2.6 C 4.98 g/m*3 2.6 C 0 km/h
35 19-01-2011 06:56:05 2.8 C 4.99 g/m*3 2.8 C 0 km/h
36 19-01-2011 07:08:05 2.8 C 4.87 g/m*3 2.8 C 0 km/h
37 19-01-2011 07:20:06 2.9 C 4.84 g/m*3 2.9 C 0 km/h
38 19-01-2011 07:32:06 2.8 C 4.81 g/m*3 2.8 C 0 km/h
39 19-01-2011 07:44:06 2.9 C 4.9 g/m*3 2.9 C 0 km/h
40 19-01-2011 07:56:02 2.6 C 4.8 g/m*3 2.6 C 0 km/h
41 19-01-2011 08:08:02 2.4 C 4.8 g/m*3 2.4 C 0 km/h
42 19-01-2011 08:20:02 2.3 C 4.82 g/m*3 2.3 C 0 km/h
43 19-01-2011 08:32:02 2.3 C 4.88 g/m*3 2.3 C 0 km/h
44 19-01-2011 08:44:02 2.3 C 4.88 g/m*3 2.3 C 0 km/h
45 19-01-2011 08:56:02 2.7 C 4.95 g/m*3 2.7 C 0 km/h
46 19-01-2011 09:08:02 2.4 C 4.74 g/m*3 2.4 C 0 km/h
47 19-01-2011 09:20:03 2.5 C 4.77 g/m*3 2.5 C 0 km/h
48 19-01-2011 09:32:02 2.7 C 4.84 g/m*3 2.7 C 0 km/h
49 19-01-2011 09:44:02 2.9 C 4.9 g/m*3 2.9 C 0 km/h
50 19-01-2011 09:56:02 3 C 4.82 g/m*3 3 C 0 km/h
Sensor: Nr:Datum:Temp:Abs-Feuchte:Windchill:Wind:
Aussen-T/F 51 19-01-2011 10:08:02 3.1 C 4.85 g/m*3 3.1 C 0 km/h
52 19-01-2011 10:20:02 2.1 C 4.53 g/m*3 2.1 C 0 km/h
53 19-01-2011 10:32:03 2 C 4.56 g/m*3 2 C 0 km/h
54 19-01-2011 10:44:03 2.1 C 4.59 g/m*3 2.1 C 0 km/h
55 19-01-2011 10:56:02 2.7 C 4.89 g/m*3 2.7 C 0 km/h
56 19-01-2011 11:08:01 3.1 C 4.85 g/m*3 3.1 C 0 km/h
57 19-01-2011 11:20:02 3.5 C 4.86 g/m*3 3.5 C 0 km/h
58 19-01-2011 11:32:02 4 C 4.96 g/m*3 4 C 0 km/h
59 19-01-2011 11:44:02 3.9 C 4.8 g/m*3 3.9 C 0 km/h
60 19-01-2011 11:56:02 3.7 C 4.74 g/m*3 3.7 C 0 km/h
61 19-01-2011 12:08:03 4.1 C 4.67 g/m*3 4.1 C 0 km/h
62 19-01-2011 12:20:02 4.3 C 4.67 g/m*3 4.3 C 0 km/h
63 19-01-2011 12:32:02 4.4 C 4.7 g/m*3 4.4 C 0 km/h
64 19-01-2011 12:44:03 4.6 C 4.57 g/m*3 4.6 C 0 km/h
65 19-01-2011 12:56:01 4.8 C 4.56 g/m*3 4.8 C 0 km/h
66 19-01-2011 13:08:02 4.8 C 4.43 g/m*3 4.8 C 0 km/h
67 19-01-2011 13:20:01 4.7 C 4.4 g/m*3 4.7 C 0 km/h
68 19-01-2011 13:32:01 5 C 4.28 g/m*3 5 C 0 km/h
69 19-01-2011 13:44:01 5.2 C 4.34 g/m*3 5.2 C 0 km/h
70 19-01-2011 13:56:01 5 C 4.28 g/m*3 5 C 0 km/h
71 19-01-2011 14:08:02 5.3 C 4.3 g/m*3 5.3 C 0 km/h
72 19-01-2011 14:20:02 5.2 C 4.27 g/m*3 5.2 C 0 km/h
73 19-01-2011 14:32:01 5.4 C 4.19 g/m*3 5.4 C 0 km/h
74 19-01-2011 14:44:01 5.5 C 4.21 g/m*3 5.5 C 0 km/h
75 19-01-2011 14:56:01 5.4 C 4.26 g/m*3 5.4 C 0 km/h
Sensor: Nr:Datum:Temp:Abs-Feuchte:Windchill:Wind:
Aussen-T/F 76 19-01-2011 15:08:01 5.1 C 4.17 g/m*3 5.1 C 0 km/h
77 19-01-2011 15:20:02 4.9 C 4.12 g/m*3 4.9 C 0 km/h
78 19-01-2011 15:32:01 4.9 C 4.12 g/m*3 4.9 C 0 km/h
79 19-01-2011 15:44:01 4.9 C 4.12 g/m*3 4.9 C 0 km/h
80 19-01-2011 15:56:02 4.9 C 4.12 g/m*3 4.9 C 0 km/h
81 19-01-2011 16:08:01 4.9 C 4.12 g/m*3 4.9 C 0 km/h
82 19-01-2011 16:20:01 4.9 C 4.12 g/m*3 4.9 C 0 km/h
83 19-01-2011 16:32:02 3.8 C 4.52 g/m*3 3.8 C 0 km/h
84 19-01-2011 16:44:02 3.8 C 4.52 g/m*3 3.8 C 0 km/h
85 19-01-2011 16:56:02 3.5 C 4.55 g/m*3 3.5 C 0 km/h
86 19-01-2011 17:08:02 3.7 C 4.55 g/m*3 3.7 C 0 km/h
87 19-01-2011 17:20:02 3.5 C 4.49 g/m*3 3.5 C 0 km/h
88 19-01-2011 17:32:02 3.5 C 4.49 g/m*3 3.5 C 0 km/h
89 19-01-2011 17:44:02 3.1 C 4.49 g/m*3 3.1 C 0 km/h
90 19-01-2011 17:56:01 2.9 C 4.67 g/m*3 2.9 C 0 km/h
91 19-01-2011 18:08:02 2.8 C 4.69 g/m*3 2.8 C 0 km/h
92 19-01-2011 18:20:01 2.9 C 4.78 g/m*3 2.9 C 0 km/h
93 19-01-2011 18:32:02 2.6 C 4.69 g/m*3 2.6 C 0 km/h
94 19-01-2011 18:44:03 3.2 C 4.82 g/m*3 3.2 C 0 km/h
95 19-01-2011 18:56:02 3.2 C 4.52 g/m*3 3.2 C 0 km/h
96 19-01-2011 19:08:02 3.4 C 4.46 g/m*3 3.4 C 0 km/h
97 19-01-2011 19:20:01 3.5 C 4.43 g/m*3 3.5 C 0 km/h
98 19-01-2011 19:32:02 3.5 C 4.37 g/m*3 3.5 C 0 km/h
99 19-01-2011 19:44:02 3 C 4.46 g/m*3 3 C 0 km/h
100 19-01-2011 19:56:01 2.6 C 4.57 g/m*3 2.6 C 0 km/h
Sensor: Nr:Datum:Temp:Abs-Feuchte:Windchill:Wind:
Aussen-T/F 101 19-01-2011 20:08:02 2.3 C 4.59 g/m*3 2.3 C 0 km/h
102 19-01-2011 20:20:02 2.2 C 4.62 g/m*3 2.2 C 0 km/h
103 19-01-2011 20:32:02 2.4 C 4.74 g/m*3 2.4 C 0 km/h
104 19-01-2011 20:44:02 2.4 C 4.74 g/m*3 2.4 C 0 km/h
105 19-01-2011 20:56:02 2.5 C 4.77 g/m*3 2.5 C 0 km/h
106 19-01-2011 21:08:02 2.6 C 4.86 g/m*3 2.6 C 0 km/h
107 19-01-2011 21:20:02 2.5 C 4.77 g/m*3 2.5 C 0 km/h
108 19-01-2011 21:32:02 2.4 C 4.74 g/m*3 2.4 C 0 km/h
109 19-01-2011 21:44:02 2.5 C 4.77 g/m*3 2.5 C 0 km/h
110 19-01-2011 21:56:02 2.5 C 4.77 g/m*3 2.5 C 0 km/h
111 19-01-2011 22:08:02 2.4 C 4.74 g/m*3 2.4 C 0 km/h
112 19-01-2011 22:21:03 2.4 C 4.74 g/m*3 2.4 C 0 km/h
113 19-01-2011 22:33:03 2.4 C 4.74 g/m*3 2.4 C 0 km/h
114 19-01-2011 22:45:03 2.4 C 4.74 g/m*3 2.4 C 0 km/h
115 19-01-2011 22:57:03 2.4 C 4.68 g/m*3 2.4 C 0 km/h
116 19-01-2011 23:09:03 2.4 C 4.68 g/m*3 2.4 C 0 km/h
117 19-01-2011 23:21:03 2.4 C 4.74 g/m*3 2.4 C 0 km/h
118 19-01-2011 23:33:03 2.4 C 4.74 g/m*3 2.4 C 0 km/h
119 19-01-2011 23:45:03 2.1 C 4.64 g/m*3 2.1 C 0 km/h
120 19-01-2011 23:57:03 2.1 C 4.64 g/m*3 2.1 C 0 km/h

Legende:
   Min
   Max


Maximal/Minimal-Werte vom 19.01.2011 - 19.01.2011

Sensor Min Max Avg
Temp
(Aussen-T/F)
2 °C
19-01-2011  10:32:03
5.5 °C
19-01-2011  14:44:01
3.31 °C
Abs-Feuchte
(Aussen-T/F)
4.12 g/m*3
19-01-2011  15:20:02
5.46 g/m*3
19-01-2011  00:08:04
4.66 g/m*3
Windchill
(Aussen-T/F)
2 C
19-01-2011  10:32:03
5.5 C
19-01-2011  14:44:01
3.28 C

Die Daten stammen von einer Davis Vantage Pro 2 Wetter-Station und werden unter Linux mit der Software wview2wettercgi und aufbereitet. Alle Angaben erfolgen ohne Gewähr für ihre Vollständigkeit oder Richtigkeit.
Kontakt: Rainer Krienke krienke@uni-koblenz.de . Meine Webseiten an der Uni Koblenz oder privat.
Version: $Revision: 0.78 $